Edgewood, South Carolina
Current Conditions -  °F | °C
As of 10:53 AM on Thursday 23 Oct 2014 (Local Time) from KCUB Reporting Station
Clear Clear  
Wind Chill: 59°   Ceiling: Unl
Heat Index: 59°   Visibility: 10mi
Dew Point: 40°   Wind: 7mph
Humidity: 49%   Direction: 330°NNW
Pressure: 30.12"   Gusts: NA
Location:  34.0268°N, 81.0007°W
Report Text: KCUB 231453Z AUTO 33006KT 10SM CLR 15/04 A3012 RMK AO2 SLP197 T01500044 50007
Loading
Personal Weather Stations






























Interactive Weather Map
Tropical Storm Tracking
New forecast layout! Learn more

10-Day Weather Forecast

Advertisements
Track Severe Weather on mobile